Time;durP1;ratioP1;P1;durP2;ratioP2;P2;SDS_P1;SDS_P2;PMS_P1;PMS_P2;Temp;Humidity;BMP_temperature;BMP_pressure;BME280_temperature;BME280_humidity;BME280_pressure;Samples;Min_cycle;Max_cycle;Signal;HPM_P1;HPM_P2
2022/12/21 00:00:12;;;;;;;5.50;4.15;;;;;;;;;;5114024;28;20492;-75
2022/12/21 00:02:39;;;;;;;5.38;4.15;;;;;;;;;;5114449;28;20043;-76
2022/12/21 00:05:05;;;;;;;5.65;4.53;;;;;;;;;;5113874;28;20024;-76
2022/12/21 00:07:31;;;;;;;5.15;3.83;;;;;;;;;;5115307;28;20019;-75
2022/12/21 00:09:57;;;;;;;5.53;4.15;;;;;;;;;;5114984;28;20035;-75
2022/12/21 00:12:23;;;;;;;5.35;4.38;;;;;;;;;;5115051;28;20051;-75
2022/12/21 00:14:49;;;;;;;7.47;4.22;;;;;;;;;;5113813;28;20039;-75
2022/12/21 00:17:14;;;;;;;6.30;4.30;;;;;;;;;;5113951;28;20470;-75
2022/12/21 00:19:40;;;;;;;5.32;4.30;;;;;;;;;;5096593;28;20024;-76
2022/12/21 00:22:06;;;;;;;5.55;4.47;;;;;;;;;;5113517;28;20028;-75
2022/12/21 00:24:32;;;;;;;7.25;4.70;;;;;;;;;;5113751;28;20027;-75
2022/12/21 00:26:58;;;;;;;5.45;4.15;;;;;;;;;;5113464;28;20042;-75
2022/12/21 00:29:23;;;;;;;6.28;4.50;;;;;;;;;;5096434;28;20553;-75
2022/12/21 00:31:49;;;;;;;5.80;4.38;;;;;;;;;;5079535;28;20040;-76
2022/12/21 00:34:18;;;;;;;6.07;4.35;;;;;;;;;;5114741;28;20035;-75
2022/12/21 00:36:43;;;;;;;7.88;4.65;;;;;;;;;;5115046;28;20031;-73
2022/12/21 00:39:09;;;;;;;14.70;5.10;;;;;;;;;;5113110;28;20059;-76
2022/12/21 00:41:34;;;;;;;6.63;4.90;;;;;;;;;;5114725;28;20534;-76
2022/12/21 00:44:00;;;;;;;7.43;4.70;;;;;;;;;;5096422;28;20034;-75
2022/12/21 00:46:29;;;;;;;6.55;4.57;;;;;;;;;;5114364;28;20034;-75
2022/12/21 00:48:55;;;;;;;6.22;4.47;;;;;;;;;;5096178;28;20066;-75
2022/12/21 00:51:22;;;;;;;6.50;4.47;;;;;;;;;;5113297;28;20484;-75
2022/12/21 00:53:47;;;;;;;6.60;4.65;;;;;;;;;;5095934;28;20035;-75
2022/12/21 00:56:14;;;;;;;7.00;4.38;;;;;;;;;;5112867;28;20104;-75
2022/12/21 00:58:40;;;;;;;5.32;4.25;;;;;;;;;;5096341;28;20027;-75
2022/12/21 01:01:13;;;;;;;6.60;4.72;;;;;;;;;;5112619;28;20393;-75
2022/12/21 01:03:39;;;;;;;8.65;4.70;;;;;;;;;;5114357;28;20118;-75
2022/12/21 01:06:05;;;;;;;6.22;4.05;;;;;;;;;;5114289;28;20470;-75
2022/12/21 01:08:30;;;;;;;6.35;4.45;;;;;;;;;;5113970;28;20027;-75
2022/12/21 01:11:00;;;;;;;6.10;4.47;;;;;;;;;;5095245;28;20028;-74
2022/12/21 01:13:27;;;;;;;5.82;4.60;;;;;;;;;;5112856;28;20047;-75
2022/12/21 01:15:53;;;;;;;6.45;4.43;;;;;;;;;;5112926;28;20039;-75
2022/12/21 01:18:18;;;;;;;5.93;4.28;;;;;;;;;;5112841;28;20027;-75
2022/12/21 01:20:46;;;;;;;6.32;4.65;;;;;;;;;;5112576;28;20028;-76
2022/12/21 01:23:11;;;;;;;7.78;4.50;;;;;;;;;;5095486;28;20030;-75
2022/12/21 01:25:37;;;;;;;6.40;4.38;;;;;;;;;;5112444;28;20454;-75
2022/12/21 01:28:03;;;;;;;5.10;4.03;;;;;;;;;;5112507;28;20063;-75
2022/12/21 01:30:28;;;;;;;6.68;4.18;;;;;;;;;;5112414;28;20028;-74
2022/12/21 01:32:53;;;;;;;5.55;4.18;;;;;;;;;;5096163;28;20340;-75
2022/12/21 01:35:19;;;;;;;5.88;4.35;;;;;;;;;;5112601;28;20023;-75
2022/12/21 01:37:44;;;;;;;7.95;4.65;;;;;;;;;;5095289;28;20072;-75
2022/12/21 01:40:11;;;;;;;5.68;4.38;;;;;;;;;;5113395;28;20054;-75
2022/12/21 01:42:36;;;;;;;5.60;4.47;;;;;;;;;;5113516;28;20496;-75
2022/12/21 01:45:16;;;;;;;7.63;4.57;;;;;;;;;;5112206;28;20118;-76
2022/12/21 01:47:57;;;;;;;8.18;4.50;;;;;;;;;;5095777;28;20529;-75
2022/12/21 01:50:37;;;;;;;5.95;4.20;;;;;;;;;;5112274;28;20535;-75
2022/12/21 01:53:07;;;;;;;6.20;4.63;;;;;;;;;;5113596;28;20073;-75
2022/12/21 01:55:33;;;;;;;5.63;4.50;;;;;;;;;;5112321;28;20034;-75
2022/12/21 01:58:00;;;;;;;4.97;4.20;;;;;;;;;;5112385;28;20032;-75
2022/12/21 02:00:25;;;;;;;4.97;4.30;;;;;;;;;;5112305;28;20054;-75
2022/12/21 02:02:56;;;;;;;6.93;4.38;;;;;;;;;;5112168;28;20031;-75
2022/12/21 02:05:40;;;;;;;6.10;4.70;;;;;;;;;;5112346;28;20019;-74
2022/12/21 02:08:05;;;;;;;5.07;4.13;;;;;;;;;;5112290;28;20019;-75
2022/12/21 02:10:31;;;;;;;6.38;4.82;;;;;;;;;;5112024;28;20521;-75
2022/12/21 02:13:05;;;;;;;6.55;4.32;;;;;;;;;;5113493;28;20023;-75
2022/12/21 02:15:55;;;;;;;5.20;4.18;;;;;;;;;;5094787;28;20031;-75
2022/12/21 02:18:39;;;;;;;4.97;4.30;;;;;;;;;;5113065;28;20093;-76
2022/12/21 02:21:07;;;;;;;5.07;4.40;;;;;;;;;;5113421;28;20027;-75
2022/12/21 02:23:48;;;;;;;7.15;4.70;;;;;;;;;;5114377;28;20035;-76
2022/12/21 02:26:35;;;;;;;7.65;4.53;;;;;;;;;;5116993;28;20019;-75
2022/12/21 02:29:04;;;;;;;6.78;4.70;;;;;;;;;;5115699;28;20023;-75
2022/12/21 02:31:41;;;;;;;6.28;4.80;;;;;;;;;;5117060;28;20035;-75
2022/12/21 02:34:21;;;;;;;5.75;4.70;;;;;;;;;;5115517;28;20030;-75
2022/12/21 02:37:00;;;;;;;8.80;4.95;;;;;;;;;;5098408;28;20027;-76
2022/12/21 02:40:03;;;;;;;10.23;4.60;;;;;;;;;;5115256;28;20044;-75
2022/12/21 02:45:42;;;;;;;5.93;4.68;;;;;;;;;;5116869;28;20027;-76
2022/12/21 02:48:14;;;;;;;7.45;4.68;;;;;;;;;;5098252;28;20042;-75
2022/12/21 02:50:42;;;;;;;6.65;4.63;;;;;;;;;;5115247;28;20509;-76
2022/12/21 02:53:20;;;;;;;6.68;4.85;;;;;;;;;;5115196;28;20431;-75
2022/12/21 02:55:46;;;;;;;5.00;4.00;;;;;;;;;;5115512;28;20034;-76
2022/12/21 02:58:22;;;;;;;5.25;4.55;;;;;;;;;;5117448;28;20028;-75
2022/12/21 03:00:51;;;;;;;6.35;4.55;;;;;;;;;;5115913;28;20030;-75
2022/12/21 03:03:48;;;;;;;6.97;4.35;;;;;;;;;;5117360;28;20027;-75
2022/12/21 03:06:26;;;;;;;7.05;4.75;;;;;;;;;;5116952;28;20016;-75
2022/12/21 03:09:09;;;;;;;6.93;4.60;;;;;;;;;;5116726;28;20466;-75
2022/12/21 03:11:48;;;;;;;8.55;4.90;;;;;;;;;;5116434;28;20038;-76
2022/12/21 03:14:35;;;;;;;6.03;4.60;;;;;;;;;;5114943;28;20020;-75
2022/12/21 03:17:19;;;;;;;6.65;4.43;;;;;;;;;;5116514;28;20039;-73
2022/12/21 03:19:51;;;;;;;5.85;4.93;;;;;;;;;;5114884;28;20415;-75
2022/12/21 03:22:24;;;;;;;6.50;4.30;;;;;;;;;;5097585;28;20066;-75
2022/12/21 03:25:00;;;;;;;6.97;5.27;;;;;;;;;;5115786;28;20016;-75
2022/12/21 03:27:34;;;;;;;8.90;4.80;;;;;;;;;;5115795;27;20077;-75
2022/12/21 03:30:11;;;;;;;6.20;4.70;;;;;;;;;;5114423;28;20027;-75
2022/12/21 03:32:43;;;;;;;7.03;4.63;;;;;;;;;;5114605;28;20035;-75
2022/12/21 03:35:17;;;;;;;7.72;5.32;;;;;;;;;;5115525;28;20031;-76
2022/12/21 03:37:44;;;;;;;10.00;4.68;;;;;;;;;;5114351;28;20607;-75
2022/12/21 03:40:13;;;;;;;8.02;4.53;;;;;;;;;;5115937;28;20055;-75
2022/12/21 03:42:43;;;;;;;5.28;4.38;;;;;;;;;;5097122;28;20019;-76
2022/12/21 03:45:23;;;;;;;5.90;4.65;;;;;;;;;;5097424;28;20036;-75
2022/12/21 03:47:56;;;;;;;6.95;4.35;;;;;;;;;;5114309;28;20132;-75
2022/12/21 03:50:25;;;;;;;6.55;4.35;;;;;;;;;;5114161;28;20055;-75
2022/12/21 03:52:56;;;;;;;6.60;4.68;;;;;;;;;;5114164;28;20035;-74
2022/12/21 03:55:25;;;;;;;7.95;4.82;;;;;;;;;;5113972;28;20157;-75
2022/12/21 03:57:51;;;;;;;7.40;4.20;;;;;;;;;;5113975;28;20032;-75
2022/12/21 04:00:17;;;;;;;6.05;4.60;;;;;;;;;;5115310;28;20027;-74
2022/12/21 04:02:52;;;;;;;7.65;4.57;;;;;;;;;;5097219;28;20039;-75
2022/12/21 04:05:21;;;;;;;6.18;4.50;;;;;;;;;;5115313;28;20378;-75
2022/12/21 04:07:48;;;;;;;6.32;4.53;;;;;;;;;;5114975;28;20470;-75
2022/12/21 04:10:16;;;;;;;5.60;4.40;;;;;;;;;;5113731;28;20023;-75
2022/12/21 04:12:41;;;;;;;7.90;4.60;;;;;;;;;;5114118;28;20020;-75
2022/12/21 04:15:10;;;;;;;6.07;4.18;;;;;;;;;;5115362;28;20081;-75
2022/12/21 04:17:36;;;;;;;6.05;4.32;;;;;;;;;;5113581;28;20466;-74
2022/12/21 04:20:06;;;;;;;5.60;4.25;;;;;;;;;;5113492;28;20036;-75
2022/12/21 04:28:09;;;;;;;6.13;4.35;;;;;;;;;;5114563;28;20046;-75
2022/12/21 04:30:38;;;;;;;5.68;4.25;;;;;;;;;;5114547;28;20023;-75
2022/12/21 04:33:04;;;;;;;4.95;4.30;;;;;;;;;;5113690;28;20036;-74
2022/12/21 04:35:29;;;;;;;6.32;4.55;;;;;;;;;;5113447;28;20028;-75
2022/12/21 04:37:55;;;;;;;11.60;4.43;;;;;;;;;;5114351;28;20020;-75
2022/12/21 04:40:20;;;;;;;6.65;4.55;;;;;;;;;;5095941;28;20051;-74
2022/12/21 04:42:46;;;;;;;5.93;4.28;;;;;;;;;;5114301;28;20096;-75
2022/12/21 04:45:11;;;;;;;5.97;4.40;;;;;;;;;;5096199;28;20031;-75
2022/12/21 04:47:36;;;;;;;5.63;4.53;;;;;;;;;;5095325;28;20392;-75
2022/12/21 04:50:02;;;;;;;8.32;5.00;;;;;;;;;;5114167;28;20034;-74
2022/12/21 04:52:27;;;;;;;7.75;4.28;;;;;;;;;;5113682;28;20027;-75
2022/12/21 04:54:53;;;;;;;6.72;4.32;;;;;;;;;;5095825;28;20051;-75
2022/12/21 04:57:18;;;;;;;7.05;4.25;;;;;;;;;;5112783;28;20474;-76
2022/12/21 04:59:44;;;;;;;5.65;4.03;;;;;;;;;;5113093;28;20035;-75
2022/12/21 05:02:10;;;;;;;8.23;4.15;;;;;;;;;;5113270;28;20458;-76
2022/12/21 05:04:36;;;;;;;7.90;4.72;;;;;;;;;;5113657;28;20023;-74
2022/12/21 05:07:01;;;;;;;9.80;4.68;;;;;;;;;;5112979;28;20038;-75
2022/12/21 05:09:27;;;;;;;6.47;4.35;;;;;;;;;;5113341;28;20098;-75
2022/12/21 05:11:53;;;;;;;6.05;4.70;;;;;;;;;;5113553;28;20023;-75
2022/12/21 05:14:18;;;;;;;7.38;4.75;;;;;;;;;;5112843;28;20031;-74
2022/12/21 05:16:43;;;;;;;6.70;4.60;;;;;;;;;;5114422;28;20024;-74
2022/12/21 05:19:09;;;;;;;5.70;4.60;;;;;;;;;;5095784;28;20027;-74
2022/12/21 05:21:34;;;;;;;7.03;4.55;;;;;;;;;;5112788;28;20079;-74
2022/12/21 05:24:00;;;;;;;7.85;4.55;;;;;;;;;;5113098;28;20023;-75
2022/12/21 05:26:25;;;;;;;5.53;4.30;;;;;;;;;;5112800;28;20030;-75
2022/12/21 05:28:50;;;;;;;9.20;5.10;;;;;;;;;;5112733;28;20485;-75
2022/12/21 05:31:16;;;;;;;6.65;4.60;;;;;;;;;;5112776;28;20039;-76
2022/12/21 05:33:42;;;;;;;6.63;5.13;;;;;;;;;;5113000;28;20024;-74
2022/12/21 05:36:10;;;;;;;12.93;4.60;;;;;;;;;;5112862;28;20030;-76
2022/12/21 05:38:36;;;;;;;12.18;5.28;;;;;;;;;;5112633;28;20046;-75
2022/12/21 05:41:02;;;;;;;9.15;5.20;;;;;;;;;;5112444;28;20051;-75
2022/12/21 05:43:27;;;;;;;13.88;5.65;;;;;;;;;;5113984;28;20055;-75
2022/12/21 05:45:53;;;;;;;20.75;6.13;;;;;;;;;;5095643;28;20020;-76
2022/12/21 05:48:18;;;;;;;15.68;6.30;;;;;;;;;;5112805;28;20102;-75
2022/12/21 05:50:44;;;;;;;13.10;5.50;;;;;;;;;;5114058;28;20122;-75
2022/12/21 05:53:09;;;;;;;19.98;6.03;;;;;;;;;;5095471;28;20067;-75
2022/12/21 05:55:35;;;;;;;14.98;5.90;;;;;;;;;;5112425;28;20064;-76
2022/12/21 05:58:00;;;;;;;16.98;5.18;;;;;;;;;;5115865;28;20028;-75
2022/12/21 06:00:26;;;;;;;15.40;5.28;;;;;;;;;;5099473;28;20466;-74
2022/12/21 06:02:51;;;;;;;18.55;7.07;;;;;;;;;;5116718;28;20088;-75
2022/12/21 06:05:17;;;;;;;114.32;21.25;;;;;;;;;;5116540;28;20028;-75
2022/12/21 06:07:42;;;;;;;60.85;12.60;;;;;;;;;;5117718;27;20027;-75
2022/12/21 06:10:08;;;;;;;36.70;10.75;;;;;;;;;;5116358;28;20040;-75
2022/12/21 06:12:34;;;;;;;36.10;10.57;;;;;;;;;;5116297;28;20435;-75
2022/12/21 06:15:00;;;;;;;31.48;9.48;;;;;;;;;;5116597;28;20103;-75
2022/12/21 06:17:29;;;;;;;24.40;8.35;;;;;;;;;;5116352;28;20046;-76
2022/12/21 06:19:54;;;;;;;31.25;9.40;;;;;;;;;;5116538;28;20132;-76
2022/12/21 06:22:20;;;;;;;25.38;7.65;;;;;;;;;;5116180;28;20505;-75
2022/12/21 06:24:45;;;;;;;26.30;7.15;;;;;;;;;;5116372;28;20077;-75
2022/12/21 06:27:11;;;;;;;17.40;7.28;;;;;;;;;;5117309;28;20485;-75
2022/12/21 06:29:36;;;;;;;18.73;6.70;;;;;;;;;;5116090;28;20031;-75
2022/12/21 06:32:02;;;;;;;15.73;6.20;;;;;;;;;;5099111;28;20055;-75
2022/12/21 06:34:27;;;;;;;17.33;6.50;;;;;;;;;;5115818;28;20031;-75
2022/12/21 06:36:53;;;;;;;15.25;6.25;;;;;;;;;;5098741;28;20476;-75
2022/12/21 06:39:18;;;;;;;18.55;7.22;;;;;;;;;;5117175;28;20059;-76
2022/12/21 06:41:44;;;;;;;14.60;5.88;;;;;;;;;;5115728;28;20122;-75
2022/12/21 06:44:09;;;;;;;15.35;5.63;;;;;;;;;;5117220;28;20028;-76
2022/12/21 06:46:34;;;;;;;13.02;5.72;;;;;;;;;;5117489;28;20055;-75
2022/12/21 06:49:00;;;;;;;14.07;5.60;;;;;;;;;;5117014;28;20038;-76
2022/12/21 06:51:25;;;;;;;10.82;5.10;;;;;;;;;;5098548;28;20042;-75
2022/12/21 06:53:52;;;;;;;12.32;5.50;;;;;;;;;;5117062;28;20062;-75
2022/12/21 06:56:29;;;;;;;10.68;5.40;;;;;;;;;;5116936;28;20056;-75
2022/12/21 06:58:55;;;;;;;12.30;5.90;;;;;;;;;;5115748;28;20588;-75
2022/12/21 07:01:26;;;;;;;12.38;5.22;;;;;;;;;;5115397;28;20069;-75
2022/12/21 07:03:52;;;;;;;9.45;4.80;;;;;;;;;;5115308;28;20019;-76
2022/12/21 07:06:19;;;;;;;11.32;5.40;;;;;;;;;;5114122;28;20024;-77
2022/12/21 07:08:45;;;;;;;12.48;4.70;;;;;;;;;;5114041;28;20032;-77
2022/12/21 07:11:12;;;;;;;21.08;5.53;;;;;;;;;;5114229;28;20101;-76
2022/12/21 07:13:39;;;;;;;13.70;5.32;;;;;;;;;;5114999;28;20398;-80
2022/12/21 07:16:05;;;;;;;10.32;5.50;;;;;;;;;;5115054;28;20024;-79
2022/12/21 07:18:31;;;;;;;10.75;5.28;;;;;;;;;;5116017;28;20112;-78
2022/12/21 07:21:05;;;;;;;10.30;5.95;;;;;;;;;;5098030;28;20050;-78
2022/12/21 07:23:31;;;;;;;10.82;4.78;;;;;;;;;;5098419;28;20073;-79
2022/12/21 07:25:57;;;;;;;13.68;5.90;;;;;;;;;;5114553;28;20034;-79
2022/12/21 07:28:23;;;;;;;9.25;5.53;;;;;;;;;;5114861;28;20028;-78
2022/12/21 07:30:49;;;;;;;12.85;5.45;;;;;;;;;;5114752;28;20119;-76
2022/12/21 07:33:15;;;;;;;15.65;5.32;;;;;;;;;;5115091;28;20078;-79
2022/12/21 07:35:41;;;;;;;9.43;5.65;;;;;;;;;;5114489;28;20035;-78
2022/12/21 07:38:06;;;;;;;9.95;5.45;;;;;;;;;;5114453;28;20028;-78
2022/12/21 07:40:31;;;;;;;9.57;5.70;;;;;;;;;;5097460;28;20050;-78
2022/12/21 07:42:57;;;;;;;8.13;5.10;;;;;;;;;;5114778;28;20035;-79
2022/12/21 07:45:22;;;;;;;9.43;5.43;;;;;;;;;;5114362;28;20032;-79
2022/12/21 07:47:48;;;;;;;10.07;5.53;;;;;;;;;;5115498;28;20020;-79
2022/12/21 07:50:13;;;;;;;13.55;5.70;;;;;;;;;;5114264;28;20110;-79
2022/12/21 07:52:39;;;;;;;8.15;5.30;;;;;;;;;;5115562;28;20474;-79
2022/12/21 07:55:05;;;;;;;10.57;5.95;;;;;;;;;;5115637;28;20043;-77
2022/12/21 07:57:31;;;;;;;8.93;5.28;;;;;;;;;;5114214;28;20027;-78
2022/12/21 07:59:56;;;;;;;13.40;5.43;;;;;;;;;;5114213;28;20035;-76
2022/12/21 08:02:21;;;;;;;12.45;5.60;;;;;;;;;;5115589;28;20477;-76
2022/12/21 08:04:47;;;;;;;12.13;5.70;;;;;;;;;;5113804;28;20027;-76
2022/12/21 08:07:12;;;;;;;10.45;6.05;;;;;;;;;;5115002;28;20036;-80
2022/12/21 08:09:37;;;;;;;10.25;5.50;;;;;;;;;;5096827;28;20461;-79
2022/12/21 08:12:03;;;;;;;14.05;5.32;;;;;;;;;;5115202;28;20073;-79
2022/12/21 08:14:29;;;;;;;11.18;5.78;;;;;;;;;;5113823;28;20027;-81
2022/12/21 08:16:54;;;;;;;14.50;5.97;;;;;;;;;;5114127;28;20080;-80
2022/12/21 08:19:21;;;;;;;9.57;5.65;;;;;;;;;;5115250;28;20470;-78
2022/12/21 08:21:46;;;;;;;7.70;5.88;;;;;;;;;;5113895;28;20075;-79
2022/12/21 08:24:12;;;;;;;9.52;6.10;;;;;;;;;;5115098;28;20023;-79
2022/12/21 08:26:37;;;;;;;11.10;5.97;;;;;;;;;;5116114;27;20027;-78
2022/12/21 08:29:03;;;;;;;9.13;5.30;;;;;;;;;;5116127;28;20031;-79
2022/12/21 08:31:29;;;;;;;9.02;5.70;;;;;;;;;;5097411;28;20043;-78
2022/12/21 08:33:54;;;;;;;8.30;5.57;;;;;;;;;;5097009;28;20024;-79
2022/12/21 08:36:21;;;;;;;11.18;5.85;;;;;;;;;;5113531;28;20479;-79
2022/12/21 08:38:47;;;;;;;7.78;5.03;;;;;;;;;;5113505;28;20127;-79
2022/12/21 08:41:13;;;;;;;9.52;5.70;;;;;;;;;;5115477;28;20516;-79
2022/12/21 08:43:39;;;;;;;9.95;5.78;;;;;;;;;;5097797;28;20402;-79
2022/12/21 08:46:05;;;;;;;12.13;5.85;;;;;;;;;;5114528;28;20040;-79
2022/12/21 08:48:31;;;;;;;10.55;6.07;;;;;;;;;;5114804;28;20024;-78
2022/12/21 08:50:57;;;;;;;7.97;5.43;;;;;;;;;;5080611;28;20076;-78
2022/12/21 08:53:23;;;;;;;11.95;5.55;;;;;;;;;;5115200;28;20435;-78
2022/12/21 08:55:48;;;;;;;9.40;5.90;;;;;;;;;;5113260;28;20496;-76
2022/12/21 08:58:14;;;;;;;9.13;5.47;;;;;;;;;;5113622;28;20032;-77
2022/12/21 09:00:40;;;;;;;7.68;5.20;;;;;;;;;;5113712;28;20087;-77
2022/12/21 09:03:07;;;;;;;9.73;6.18;;;;;;;;;;5114093;28;20122;-78
2022/12/21 09:05:33;;;;;;;12.18;6.13;;;;;;;;;;5113903;28;20030;-78
2022/12/21 09:08:00;;;;;;;10.65;5.78;;;;;;;;;;5114224;28;20515;-78
2022/12/21 09:10:25;;;;;;;10.85;5.93;;;;;;;;;;5115680;28;20044;-81
2022/12/21 09:12:50;;;;;;;10.75;6.05;;;;;;;;;;5096379;28;20030;-82
2022/12/21 09:15:16;;;;;;;10.25;6.13;;;;;;;;;;5114802;28;20104;-82
2022/12/21 09:17:42;;;;;;;9.10;5.63;;;;;;;;;;5112939;28;20439;-81
2022/12/21 09:20:07;;;;;;;8.88;5.78;;;;;;;;;;5097100;28;20031;-79
2022/12/21 09:22:33;;;;;;;11.20;5.75;;;;;;;;;;5114651;28;20112;-78
2022/12/21 09:24:58;;;;;;;8.57;5.60;;;;;;;;;;5113842;28;20053;-78
2022/12/21 09:27:24;;;;;;;10.57;5.38;;;;;;;;;;5112284;28;20039;-75
2022/12/21 09:29:49;;;;;;;12.63;6.20;;;;;;;;;;5112557;28;20062;-76
2022/12/21 09:32:15;;;;;;;11.15;6.13;;;;;;;;;;5113612;28;20461;-74
2022/12/21 09:34:41;;;;;;;10.52;5.95;;;;;;;;;;5113547;28;20032;-74
2022/12/21 09:37:06;;;;;;;11.68;6.47;;;;;;;;;;5095605;28;20052;-74
2022/12/21 09:39:31;;;;;;;11.13;6.00;;;;;;;;;;5113541;28;20049;-74
2022/12/21 09:42:22;;;;;;;16.45;6.20;;;;;;;;;;5113698;28;20028;-75
2022/12/21 09:45:06;;;;;;;10.75;5.60;;;;;;;;;;5112489;28;20023;-75
2022/12/21 09:47:50;;;;;;;;;;;;;;;;;;5112934;28;20442;-75
2022/12/21 09:50:21;;;;;;;11.05;5.88;;;;;;;;;;5113451;28;19961;-75
2022/12/21 09:52:51;;;;;;;13.15;6.10;;;;;;;;;;5112544;28;20039;-75
2022/12/21 09:55:21;;;;;;;7.65;5.75;;;;;;;;;;5095302;28;20032;-75
2022/12/21 09:57:49;;;;;;;11.55;5.90;;;;;;;;;;5112305;28;20062;-74
2022/12/21 10:00:17;;;;;;;11.80;5.93;;;;;;;;;;5112616;28;20417;-75
2022/12/21 10:02:50;;;;;;;9.52;6.00;;;;;;;;;;5114035;28;20030;-74
2022/12/21 10:05:44;;;;;;;8.38;5.53;;;;;;;;;;5112672;28;20110;-75
2022/12/21 10:08:17;;;;;;;7.10;5.20;;;;;;;;;;5114622;28;20061;-75
2022/12/21 10:11:04;;;;;;;12.60;6.07;;;;;;;;;;5112689;28;20028;-75
2022/12/21 10:13:47;;;;;;;8.20;5.95;;;;;;;;;;5113670;28;20081;-74
2022/12/21 10:16:18;;;;;;;8.90;5.05;;;;;;;;;;5095225;28;20100;-75
2022/12/21 10:18:58;;;;;;;7.88;5.18;;;;;;;;;;5113763;28;20024;-75
2022/12/21 10:21:31;;;;;;;10.73;5.43;;;;;;;;;;5113658;28;20110;-75
2022/12/21 10:23:57;;;;;;;11.90;5.70;;;;;;;;;;5112294;28;20476;-75
2022/12/21 10:26:25;;;;;;;8.98;5.47;;;;;;;;;;5113465;28;20345;-75
2022/12/21 10:29:19;;;;;;;8.68;5.15;;;;;;;;;;5112262;28;20378;-75
2022/12/21 10:31:46;;;;;;;7.82;4.78;;;;;;;;;;5113325;28;20394;-74
2022/12/21 10:34:32;;;;;;;7.38;5.10;;;;;;;;;;5113603;28;20034;-75
2022/12/21 10:37:08;;;;;;;7.72;4.65;;;;;;;;;;5079185;28;20375;-74
2022/12/21 10:39:33;;;;;;;7.65;4.70;;;;;;;;;;5112178;28;20126;-75
2022/12/21 10:42:08;;;;;;;8.50;5.00;;;;;;;;;;5113304;28;20153;-74
2022/12/21 10:44:38;;;;;;;8.05;4.30;;;;;;;;;;5113288;28;20160;-74
2022/12/21 10:47:15;;;;;;;7.22;4.88;;;;;;;;;;5115856;28;20484;-75
2022/12/21 10:49:42;;;;;;;8.65;4.93;;;;;;;;;;5115875;28;20032;-74
2022/12/21 10:52:33;;;;;;;9.90;4.53;;;;;;;;;;5114301;28;20438;-78
2022/12/21 10:54:59;;;;;;;8.07;4.68;;;;;;;;;;5098379;28;20024;-77
2022/12/21 10:57:26;;;;;;;8.38;4.22;;;;;;;;;;5115406;28;20039;-78
2022/12/21 10:59:51;;;;;;;9.40;4.55;;;;;;;;;;5115569;28;20032;-78
2022/12/21 11:02:39;;;;;;;5.40;4.20;;;;;;;;;;5098488;28;20030;-79
2022/12/21 11:05:23;;;;;;;8.38;4.50;;;;;;;;;;5115730;28;20030;-78
2022/12/21 11:07:48;;;;;;;11.88;4.70;;;;;;;;;;5116639;28;20104;-79
2022/12/21 11:10:27;;;;;;;7.75;4.40;;;;;;;;;;5116466;28;20070;-78
2022/12/21 11:12:53;;;;;;;8.88;4.00;;;;;;;;;;5115248;28;20150;-75
2022/12/21 11:15:24;;;;;;;7.03;4.47;;;;;;;;;;5116238;28;20486;-75
2022/12/21 11:17:49;;;;;;;7.30;4.13;;;;;;;;;;5115366;28;20385;-75
2022/12/21 11:20:19;;;;;;;10.80;4.80;;;;;;;;;;5098124;28;20039;-75
2022/12/21 11:22:46;;;;;;;9.27;4.75;;;;;;;;;;5115073;28;20059;-75
2022/12/21 11:25:21;;;;;;;8.48;4.38;;;;;;;;;;5115072;28;20096;-76
2022/12/21 11:27:48;;;;;;;6.82;4.47;;;;;;;;;;5115020;28;20020;-74
2022/12/21 11:30:20;;;;;;;10.70;6.13;;;;;;;;;;5115270;28;20055;-74
2022/12/21 11:32:47;;;;;;;22.55;11.77;;;;;;;;;;5115727;28;20035;-74
2022/12/21 11:35:22;;;;;;;20.42;12.90;;;;;;;;;;5115964;28;20023;-74
2022/12/21 11:37:55;;;;;;;27.40;16.35;;;;;;;;;;5114560;28;20098;-74
2022/12/21 11:40:24;;;;;;;32.90;20.17;;;;;;;;;;5114565;28;20478;-75
2022/12/21 11:42:59;;;;;;;33.55;20.60;;;;;;;;;;5114911;28;20527;-76
2022/12/21 11:45:52;;;;;;;44.97;26.23;;;;;;;;;;5116504;28;20047;-75
2022/12/21 11:48:39;;;;;;;54.72;36.40;;;;;;;;;;5114520;28;20024;-74
2022/12/21 11:51:16;;;;;;;70.97;43.80;;;;;;;;;;5115702;28;20027;-74
2022/12/21 11:54:00;;;;;;;95.10;56.38;;;;;;;;;;5115898;28;20019;-75
2022/12/21 11:56:36;;;;;;;103.80;67.60;;;;;;;;;;5114379;28;20032;-75
2022/12/21 11:59:29;;;;;;;121.82;75.63;;;;;;;;;;5114618;28;20098;-74
2022/12/21 12:02:03;;;;;;;127.67;80.87;;;;;;;;;;5115598;28;20031;-74
2022/12/21 12:04:37;;;;;;;132.88;86.50;;;;;;;;;;5115632;28;20447;-74
2022/12/21 12:07:09;;;;;;;;;;;;;;;;;;5114445;28;20466;-74
2022/12/21 12:09:43;;;;;;;135.00;87.55;;;;;;;;;;5114050;28;19915;-75
2022/12/21 12:12:22;;;;;;;127.75;84.10;;;;;;;;;;5115506;28;20023;-74
2022/12/21 12:15:09;;;;;;;128.63;83.95;;;;;;;;;;5115090;28;20062;-74
2022/12/21 12:17:49;;;;;;;128.23;82.47;;;;;;;;;;5113854;28;20023;-74
2022/12/21 12:20:33;;;;;;;127.15;84.30;;;;;;;;;;5115073;28;20078;-74
2022/12/21 12:23:27;;;;;;;134.40;88.38;;;;;;;;;;5115293;28;20109;-76
2022/12/21 12:25:58;;;;;;;;;;;;;;;;;;5115894;28;20023;-75
2022/12/21 12:29:06;;;;;;;138.70;87.38;;;;;;;;;;5113928;28;19995;-74
2022/12/21 12:32:07;;;;;;;136.52;86.60;;;;;;;;;;5093879;28;20043;-74
2022/12/21 12:34:44;;;;;;;132.63;84.38;;;;;;;;;;5113462;28;20023;-74
2022/12/21 12:37:33;;;;;;;129.15;82.15;;;;;;;;;;5113478;28;20035;-77
2022/12/21 12:40:04;;;;;;;123.80;78.90;;;;;;;;;;5113195;28;20078;-77
2022/12/21 12:42:40;;;;;;;118.60;75.78;;;;;;;;;;5113386;28;20498;-75
2022/12/21 12:45:31;;;;;;;121.75;76.70;;;;;;;;;;5113488;28;20024;-75
2022/12/21 12:48:05;;;;;;;117.65;74.50;;;;;;;;;;5113705;28;20031;-79
2022/12/21 12:50:44;;;;;;;106.90;66.53;;;;;;;;;;5114500;28;20019;-78
2022/12/21 12:53:30;;;;;;;102.95;66.20;;;;;;;;;;5114788;28;20027;-77
2022/12/21 12:56:10;;;;;;;100.18;63.13;;;;;;;;;;5114285;28;20024;-77
2022/12/21 12:58:35;;;;;;;98.07;60.70;;;;;;;;;;5113148;28;20114;-77
2022/12/21 13:01:22;;;;;;;99.43;59.03;;;;;;;;;;5114421;28;20106;-78
2022/12/21 13:04:08;;;;;;;95.43;56.55;;;;;;;;;;5113068;28;20019;-77
2022/12/21 13:06:52;;;;;;;86.95;54.22;;;;;;;;;;5071869;28;20028;-77
2022/12/21 13:09:20;;;;;;;;;;;;;;;;;;5113739;28;20019;-76
2022/12/21 13:12:26;;;;;;;78.38;49.33;;;;;;;;;;5114059;28;19908;-77
2022/12/21 13:15:06;;;;;;;84.18;49.13;;;;;;;;;;5114430;28;20047;-78
2022/12/21 13:17:31;;;;;;;78.22;46.75;;;;;;;;;;5096006;28;20382;-77
2022/12/21 13:19:58;;;;;;;73.32;45.92;;;;;;;;;;5114093;28;20020;-76
2022/12/21 13:22:28;;;;;;;68.95;44.35;;;;;;;;;;5112920;28;20024;-76
2022/12/21 13:25:01;;;;;;;64.60;43.35;;;;;;;;;;5095754;28;20016;-77
2022/12/21 13:27:29;;;;;;;63.05;42.30;;;;;;;;;;5112868;28;20474;-77
2022/12/21 13:30:05;;;;;;;65.22;42.42;;;;;;;;;;5112754;28;20043;-77
2022/12/21 13:32:40;;;;;;;58.00;39.70;;;;;;;;;;5112757;28;20032;-77
2022/12/21 13:35:12;;;;;;;56.13;36.28;;;;;;;;;;5095602;28;20024;-76
2022/12/21 13:37:38;;;;;;;52.92;34.85;;;;;;;;;;5113892;28;20369;-76
2022/12/21 13:40:17;;;;;;;46.70;32.97;;;;;;;;;;5112731;28;20062;-76
2022/12/21 13:42:51;;;;;;;43.30;31.00;;;;;;;;;;5112866;28;20386;-77
2022/12/21 13:45:33;;;;;;;46.25;29.77;;;;;;;;;;5112434;28;20028;-77
2022/12/21 13:47:59;;;;;;;44.92;28.98;;;;;;;;;;5112558;28;20053;-77
2022/12/21 13:50:30;;;;;;;41.33;28.67;;;;;;;;;;5112493;28;20023;-78
2022/12/21 13:53:05;;;;;;;41.42;27.30;;;;;;;;;;5112446;28;20062;-78
2022/12/21 13:55:42;;;;;;;41.97;27.60;;;;;;;;;;5112703;28;20061;-78
2022/12/21 13:58:25;;;;;;;42.15;27.10;;;;;;;;;;5112356;28;20030;-78
2022/12/21 14:00:53;;;;;;;41.20;25.57;;;;;;;;;;5112327;28;20030;-78
2022/12/21 14:03:25;;;;;;;37.55;25.85;;;;;;;;;;5112933;28;20031;-78
2022/12/21 14:06:29;;;;;;;35.97;24.73;;;;;;;;;;5114157;28;20015;-76
2022/12/21 14:09:03;;;;;;;38.28;24.65;;;;;;;;;;5109409;28;20067;-78
2022/12/21 14:11:40;;;;;;;38.53;24.98;;;;;;;;;;5112801;28;20397;-77
2022/12/21 14:14:18;;;;;;;38.53;24.10;;;;;;;;;;5112778;28;20023;-77
2022/12/21 14:16:43;;;;;;;34.45;23.08;;;;;;;;;;5112216;28;20394;-77
2022/12/21 14:19:20;;;;;;;33.92;21.83;;;;;;;;;;5113005;28;20032;-77
2022/12/21 14:21:48;;;;;;;29.30;20.73;;;;;;;;;;5116290;28;20028;-78
2022/12/21 14:24:27;;;;;;;32.50;21.55;;;;;;;;;;5116543;28;20024;-77
2022/12/21 14:27:14;;;;;;;31.90;20.17;;;;;;;;;;5099085;28;20027;-78
2022/12/21 14:29:40;;;;;;;27.80;20.25;;;;;;;;;;5117295;28;20031;-78
2022/12/21 14:32:09;;;;;;;25.98;18.85;;;;;;;;;;5116178;28;20058;-77
2022/12/21 14:34:52;;;;;;;26.45;18.58;;;;;;;;;;5117369;28;20024;-78
2022/12/21 14:37:17;;;;;;;27.08;18.38;;;;;;;;;;5116057;28;20427;-78
2022/12/21 14:39:46;;;;;;;26.98;17.83;;;;;;;;;;5117403;28;20073;-77
2022/12/21 14:42:35;;;;;;;25.05;17.52;;;;;;;;;;5117174;28;20092;-78
2022/12/21 14:45:33;;;;;;;26.92;17.65;;;;;;;;;;5116116;28;20103;-76
2022/12/21 14:48:22;;;;;;;28.77;16.52;;;;;;;;;;5112325;28;20040;-77
2022/12/21 14:50:50;;;;;;;22.83;15.80;;;;;;;;;;5115832;28;20020;-74
2022/12/21 14:53:28;;;;;;;24.45;15.55;;;;;;;;;;5115676;28;20032;-76
2022/12/21 14:56:14;;;;;;;22.20;14.82;;;;;;;;;;5116971;28;20019;-76
2022/12/21 14:58:43;;;;;;;24.65;14.57;;;;;;;;;;5098416;28;20024;-76
2022/12/21 15:01:11;;;;;;;25.25;15.00;;;;;;;;;;5098323;28;20106;-77
2022/12/21 15:03:46;;;;;;;21.10;13.45;;;;;;;;;;5116685;28;20031;-77